createdAt,value
2023-05-06T00:02:24.296Z,-2.39
2023-05-06T00:05:47.648Z,-2.47
2023-05-06T00:09:10.943Z,-2.49
2023-05-06T00:12:33.304Z,-2.57
2023-05-06T00:15:55.099Z,-2.62
2023-05-06T00:19:16.960Z,-2.68
2023-05-06T00:22:38.686Z,-2.77
2023-05-06T00:26:01.766Z,-2.81
2023-05-06T00:29:23.681Z,-2.87
2023-05-06T00:32:45.490Z,-2.90
2023-05-06T00:36:07.763Z,-2.95
2023-05-06T00:39:31.173Z,-2.98
2023-05-06T00:42:54.445Z,-3.05
2023-05-06T00:46:17.382Z,-3.12
2023-05-06T00:49:39.414Z,-3.17
2023-05-06T00:53:03.446Z,-3.22
2023-05-06T00:56:25.205Z,-3.29
2023-05-06T00:59:48.414Z,-3.32
2023-05-06T01:03:10.586Z,-3.37
2023-05-06T01:06:43.548Z,-3.44
2023-05-06T01:10:18.890Z,-3.50
2023-05-06T01:13:48.306Z,-3.58
2023-05-06T01:17:14.195Z,-3.64
2023-05-06T01:20:38.440Z,-3.68
2023-05-06T01:24:02.405Z,-3.72
2023-05-06T01:27:24.802Z,-3.78
2023-05-06T01:30:56.022Z,-3.85
2023-05-06T01:34:23.612Z,-3.92
2023-05-06T01:37:49.516Z,-3.96
2023-05-06T01:41:17.714Z,-4.02
2023-05-06T01:44:41.104Z,-4.05
2023-05-06T01:48:03.235Z,-4.08
2023-05-06T01:51:25.222Z,-4.14
2023-05-06T01:54:47.163Z,-4.21
2023-05-06T01:58:10.283Z,-4.30
2023-05-06T02:01:32.322Z,-4.33
2023-05-06T02:04:54.712Z,-4.33
2023-05-06T02:08:16.652Z,-4.36
2023-05-06T02:11:38.697Z,-4.39
2023-05-06T02:15:02.124Z,-4.40
2023-05-06T02:18:25.540Z,-4.38
2023-05-06T02:21:47.251Z,-4.39
2023-05-06T02:25:10.649Z,-4.40
2023-05-06T02:28:32.559Z,-4.40
2023-05-06T02:31:56.289Z,-4.42
2023-05-06T02:35:18.466Z,-4.45
2023-05-06T02:38:40.640Z,-4.44
2023-05-06T02:42:02.589Z,-4.53
2023-05-06T02:45:24.164Z,-4.43
2023-05-06T02:48:47.357Z,-4.41
2023-05-06T02:52:09.603Z,-4.38
2023-05-06T02:55:31.818Z,-4.34
2023-05-06T02:58:54.589Z,-4.37
2023-05-06T03:02:16.781Z,-4.25
2023-05-06T03:05:39.897Z,-4.20
2023-05-06T03:09:02.163Z,-4.10
2023-05-06T03:12:24.010Z,-3.91
2023-05-06T03:15:45.922Z,-3.55
2023-05-06T03:19:07.687Z,-3.10
2023-05-06T03:22:31.207Z,-2.83
2023-05-06T03:25:53.049Z,-2.68
2023-05-06T03:29:15.056Z,-2.63
2023-05-06T03:32:36.879Z,-2.50
2023-05-06T03:35:58.580Z,-2.40
2023-05-06T03:39:22.054Z,-2.24
2023-05-06T03:42:44.165Z,-2.03
2023-05-06T03:46:06.135Z,-2.02
2023-05-06T03:49:28.019Z,-1.70
2023-05-06T03:52:50.063Z,-1.52
2023-05-06T03:56:13.387Z,-1.36
2023-05-06T03:59:35.290Z,-1.24
2023-05-06T04:02:57.284Z,-1.05
2023-05-06T04:06:19.249Z,-0.84
2023-05-06T04:09:41.008Z,-0.64
2023-05-06T04:13:04.198Z,-0.44
2023-05-06T04:16:26.695Z,-0.29
2023-05-06T04:19:48.530Z,-0.11
2023-05-06T04:23:10.385Z,0.04
2023-05-06T04:26:33.189Z,0.10
2023-05-06T04:29:56.622Z,0.24
2023-05-06T04:33:18.820Z,0.37
2023-05-06T04:36:40.879Z,0.44
2023-05-06T04:40:04.269Z,0.30
2023-05-06T04:43:26.773Z,0.18
2023-05-06T04:46:49.760Z,0.18
2023-05-06T04:50:13.127Z,0.25
2023-05-06T04:53:35.309Z,0.37
2023-05-06T04:56:57.317Z,0.57
2023-05-06T05:00:19.847Z,0.58
2023-05-06T05:03:43.313Z,0.69
2023-05-06T05:07:05.396Z,0.78
2023-05-06T05:10:27.262Z,0.98
2023-05-06T05:13:49.548Z,1.27
2023-05-06T05:17:11.968Z,1.50
2023-05-06T05:20:35.029Z,1.74
2023-05-06T05:23:57.088Z,1.93
2023-05-06T05:27:19.037Z,2.08
2023-05-06T05:30:40.934Z,2.17
2023-05-06T05:34:03.102Z,2.37
2023-05-06T05:37:26.381Z,2.53
2023-05-06T05:40:48.166Z,2.80
2023-05-06T05:44:10.158Z,3.05
2023-05-06T05:47:31.892Z,3.40
2023-05-06T05:50:53.584Z,3.81
2023-05-06T05:54:16.746Z,4.09
2023-05-06T05:57:38.743Z,4.34
2023-05-06T06:01:01.851Z,4.51
2023-05-06T06:04:23.766Z,4.70
2023-05-06T06:07:45.507Z,4.94
2023-05-06T06:11:08.863Z,5.21
2023-05-06T06:14:30.954Z,5.36
2023-05-06T06:17:54.700Z,5.42
2023-05-06T06:21:17.222Z,5.34
2023-05-06T06:24:39.515Z,5.22
2023-05-06T06:28:02.737Z,5.27
2023-05-06T06:31:25.000Z,5.35
2023-05-06T06:34:46.861Z,5.25
2023-05-06T06:38:09.005Z,5.28
2023-05-06T06:41:30.862Z,5.27
2023-05-06T06:44:53.961Z,5.25
2023-05-06T06:48:16.567Z,5.13
2023-05-06T06:51:38.297Z,5.28
2023-05-06T06:55:00.455Z,5.45
2023-05-06T06:58:22.151Z,5.41
2023-05-06T07:01:45.745Z,5.37
2023-05-06T07:05:08.307Z,5.48
2023-05-06T07:08:30.489Z,5.60
2023-05-06T07:11:52.720Z,5.83
2023-05-06T07:15:14.279Z,6.06
2023-05-06T07:18:37.864Z,6.29
2023-05-06T07:22:00.025Z,6.61
2023-05-06T07:25:21.768Z,6.74
2023-05-06T07:28:43.549Z,6.72
2023-05-06T07:32:06.142Z,6.75
2023-05-06T07:35:29.598Z,6.76
2023-05-06T07:38:51.758Z,6.61
2023-05-06T07:42:13.783Z,6.52
2023-05-06T07:45:35.641Z,6.85
2023-05-06T07:48:57.390Z,7.07
2023-05-06T07:52:20.749Z,7.28
2023-05-06T07:55:42.654Z,7.51
2023-05-06T07:59:04.420Z,7.68
2023-05-06T08:02:27.278Z,7.66
2023-05-06T08:05:51.169Z,7.68
2023-05-06T08:09:22.355Z,7.66
2023-05-06T08:12:44.837Z,7.72
2023-05-06T08:16:07.934Z,7.73
2023-05-06T08:19:30.204Z,7.72
2023-05-06T08:22:52.374Z,7.54
2023-05-06T08:26:15.693Z,7.34
2023-05-06T08:29:37.718Z,7.24
2023-05-06T08:32:59.592Z,7.30
2023-05-06T08:36:22.125Z,7.48
2023-05-06T08:39:45.578Z,7.61
2023-05-06T08:43:14.536Z,7.70
2023-05-06T08:46:36.902Z,7.72
2023-05-06T08:49:58.906Z,7.75
2023-05-06T08:53:20.929Z,7.80
2023-05-06T08:56:48.704Z,7.87
2023-05-06T09:00:13.267Z,8.06
2023-05-06T09:03:35.384Z,8.21
2023-05-06T09:06:59.030Z,8.30
2023-05-06T09:10:21.132Z,8.27
2023-05-06T09:13:43.042Z,8.15
2023-05-06T09:17:06.160Z,8.14
2023-05-06T09:20:28.232Z,8.38
2023-05-06T09:23:50.383Z,8.44
2023-05-06T09:27:15.116Z,8.55
2023-05-06T09:30:40.495Z,8.59
2023-05-06T09:34:03.554Z,8.69
2023-05-06T09:37:27.541Z,8.59
2023-05-06T09:40:49.491Z,8.59
2023-05-06T09:44:12.991Z,8.45
2023-05-06T09:47:35.846Z,8.56
2023-05-06T09:51:01.326Z,8.60
2023-05-06T09:54:24.031Z,8.66
2023-05-06T09:57:46.559Z,8.59
2023-05-06T10:01:09.850Z,8.62
2023-05-06T10:04:34.998Z,8.81
2023-05-06T10:07:59.469Z,8.79
2023-05-06T10:11:23.119Z,8.88
2023-05-06T10:14:44.810Z,8.93
2023-05-06T10:18:08.743Z,8.96
2023-05-06T10:21:34.609Z,8.93
2023-05-06T10:25:04.832Z,8.95
2023-05-06T10:28:30.477Z,9.05
2023-05-06T10:31:56.329Z,9.12
2023-05-06T10:35:29.043Z,9.11
2023-05-06T10:38:56.670Z,8.79
2023-05-06T10:42:19.868Z,8.83
2023-05-06T10:46:01.254Z,8.97
2023-05-06T10:49:23.231Z,9.07
2023-05-06T10:52:46.090Z,9.25
2023-05-06T10:56:10.658Z,9.16
2023-05-06T10:59:34.098Z,9.00
2023-05-06T11:02:59.048Z,8.97
2023-05-06T11:06:37.692Z,9.15
2023-05-06T11:10:00.676Z,9.13
2023-05-06T11:13:26.310Z,9.12
2023-05-06T11:16:51.018Z,9.12
2023-05-06T11:20:23.620Z,9.07
2023-05-06T11:24:14.226Z,9.07
2023-05-06T11:27:37.653Z,9.01
2023-05-06T11:31:01.997Z,9.06
2023-05-06T11:34:28.096Z,9.09
2023-05-06T11:37:49.967Z,9.08
2023-05-06T11:41:11.818Z,9.08
2023-05-06T11:44:35.721Z,9.35
2023-05-06T11:47:57.661Z,9.43
2023-05-06T11:51:25.036Z,9.37
2023-05-06T11:58:14.223Z,9.11
2023-05-06T12:01:36.370Z,8.98
2023-05-06T12:04:58.605Z,8.93
2023-05-06T12:08:27.858Z,8.89
2023-05-06T12:11:50.766Z,8.96
2023-05-06T12:15:13.832Z,9.00
2023-05-06T12:18:36.028Z,9.15
2023-05-06T12:22:14.916Z,9.31
2023-05-06T12:25:39.099Z,9.28
2023-05-06T12:29:09.141Z,9.12
2023-05-06T12:32:32.305Z,9.14
2023-05-06T12:35:57.113Z,9.07
2023-05-06T12:39:18.862Z,8.93
2023-05-06T12:42:42.152Z,8.74
2023-05-06T12:46:05.758Z,8.67
2023-05-06T12:49:27.633Z,8.75
2023-05-06T12:52:49.430Z,9.01
2023-05-06T12:56:11.201Z,9.37
2023-05-06T12:59:34.884Z,9.56
2023-05-06T13:02:57.033Z,9.68
2023-05-06T13:06:18.747Z,9.54
2023-05-06T13:09:40.743Z,9.77
2023-05-06T13:13:02.727Z,9.69
2023-05-06T13:16:26.105Z,9.49
2023-05-06T13:19:48.266Z,9.46
2023-05-06T13:23:10.079Z,9.38
2023-05-06T13:26:31.870Z,9.38
2023-05-06T13:29:53.810Z,9.36
2023-05-06T13:33:17.266Z,9.37
2023-05-06T13:36:39.333Z,9.31
2023-05-06T13:40:01.156Z,9.26
2023-05-06T13:43:24.845Z,9.28
2023-05-06T13:46:47.029Z,9.25
2023-05-06T13:50:11.254Z,9.34
2023-05-06T13:53:33.438Z,9.42
2023-05-06T13:56:55.085Z,9.41
2023-05-06T14:00:17.878Z,9.34
2023-05-06T14:03:39.825Z,9.46
2023-05-06T14:07:02.976Z,9.53
2023-05-06T14:10:25.078Z,9.59
2023-05-06T14:13:47.186Z,9.57
2023-05-06T14:17:09.014Z,9.52
2023-05-06T14:20:30.866Z,9.46
2023-05-06T14:23:54.083Z,9.46
2023-05-06T14:27:16.195Z,9.39
2023-05-06T14:30:38.947Z,9.39
2023-05-06T14:34:01.033Z,9.39
2023-05-06T14:37:22.950Z,9.41
2023-05-06T14:40:46.095Z,9.40
2023-05-06T14:44:08.093Z,9.31
2023-05-06T14:47:30.150Z,9.34
2023-05-06T14:50:51.992Z,9.35
2023-05-06T14:54:13.998Z,9.27
2023-05-06T14:57:37.616Z,9.17
2023-05-06T15:00:59.366Z,9.29
2023-05-06T15:04:21.019Z,9.33
2023-05-06T15:07:43.094Z,9.35
2023-05-06T15:11:04.863Z,9.30
2023-05-06T15:14:28.075Z,9.21
2023-05-06T15:17:52.396Z,9.17
2023-05-06T15:21:14.436Z,9.13
2023-05-06T15:24:36.895Z,9.14
2023-05-06T15:27:58.950Z,9.02
2023-05-06T15:31:22.131Z,8.81
2023-05-06T15:34:44.218Z,8.73
2023-05-06T15:38:06.243Z,8.77
2023-05-06T15:41:29.342Z,8.75
2023-05-06T15:44:51.664Z,8.73
2023-05-06T15:48:15.122Z,8.75
2023-05-06T15:51:36.697Z,8.79
2023-05-06T15:55:00.034Z,8.73
2023-05-06T15:58:22.316Z,8.57
2023-05-06T16:05:13.084Z,8.95
2023-05-06T16:08:35.342Z,9.18
2023-05-06T16:11:57.462Z,9.15
2023-05-06T16:15:20.710Z,8.88
2023-05-06T16:18:42.782Z,9.52
2023-05-06T16:22:06.311Z,10.16
2023-05-06T16:25:28.357Z,10.85
2023-05-06T16:28:50.272Z,11.22
2023-05-06T16:32:11.938Z,11.50
2023-05-06T16:35:34.214Z,12.09
2023-05-06T16:38:57.755Z,12.33
2023-05-06T16:42:19.947Z,12.53
2023-05-06T16:45:45.346Z,12.27
2023-05-06T16:49:07.444Z,11.96
2023-05-06T16:52:30.756Z,11.56
2023-05-06T16:55:53.995Z,11.04
2023-05-06T16:59:15.685Z,10.61
2023-05-06T17:02:37.494Z,10.28
2023-05-06T17:05:59.198Z,9.94
2023-05-06T17:09:21.536Z,9.61
2023-05-06T17:12:44.951Z,9.96
2023-05-06T17:16:07.973Z,10.29
2023-05-06T17:19:29.952Z,10.65
2023-05-06T17:22:52.551Z,11.17
2023-05-06T17:26:16.775Z,11.23
2023-05-06T17:29:40.068Z,11.31
2023-05-06T17:33:02.671Z,11.38
2023-05-06T17:36:24.672Z,11.31
2023-05-06T17:39:47.325Z,11.42
2023-05-06T17:43:09.292Z,11.44
2023-05-06T17:46:33.584Z,11.42
2023-05-06T17:49:55.355Z,11.14
2023-05-06T17:53:17.096Z,10.71
2023-05-06T17:56:39.039Z,10.24
2023-05-06T18:00:00.835Z,9.80
2023-05-06T18:04:31.725Z,9.30
2023-05-06T18:07:55.631Z,8.81
2023-05-06T18:11:42.105Z,8.45
2023-05-06T18:35:48.299Z,6.79
2023-05-06T18:39:10.484Z,6.50
2023-05-06T18:42:33.339Z,6.24
2023-05-06T18:45:56.237Z,6.05
2023-05-06T18:49:18.678Z,5.79
2023-05-06T18:52:43.294Z,5.54
2023-05-06T18:56:06.283Z,5.27
2023-05-06T18:59:28.424Z,5.12
2023-05-06T19:02:51.039Z,4.95
2023-05-06T19:06:15.596Z,4.75
2023-05-06T19:09:39.124Z,4.54
2023-05-06T19:13:01.649Z,4.38
2023-05-06T19:16:24.821Z,4.20
2023-05-06T19:19:48.719Z,4.03
2023-05-06T19:23:11.574Z,3.88
2023-05-06T19:26:35.667Z,3.82
2023-05-06T19:29:57.769Z,3.70
2023-05-06T19:33:23.773Z,3.57
2023-05-06T19:36:45.905Z,3.42
2023-05-06T19:40:09.529Z,3.29
2023-05-06T19:43:33.103Z,3.17
2023-05-06T19:46:55.521Z,3.04
2023-05-06T19:50:17.765Z,2.88
2023-05-06T19:53:39.748Z,2.77
2023-05-06T19:57:02.334Z,2.67
2023-05-06T20:00:28.194Z,2.57
2023-05-06T20:03:50.307Z,2.45
2023-05-06T20:07:12.220Z,2.39
2023-05-06T20:10:33.960Z,2.29
2023-05-06T20:13:55.991Z,2.22
2023-05-06T20:17:19.461Z,2.14
2023-05-06T20:20:41.390Z,2.07
2023-05-06T20:24:03.438Z,2.02
2023-05-06T20:27:25.492Z,1.92
2023-05-06T20:30:49.168Z,1.86
2023-05-06T20:34:12.586Z,1.75
2023-05-06T20:37:36.635Z,1.64
2023-05-06T20:40:59.261Z,1.60
2023-05-06T20:44:21.535Z,1.55
2023-05-06T20:47:43.874Z,1.52
2023-05-06T20:51:07.072Z,1.48
2023-05-06T20:54:29.449Z,1.43
2023-05-06T20:57:51.535Z,1.32
2023-05-06T21:01:13.565Z,1.28
2023-05-06T21:04:35.556Z,1.21
2023-05-06T21:07:58.932Z,1.13
2023-05-06T21:11:21.201Z,1.12
2023-05-06T21:14:42.950Z,1.05
2023-05-06T21:18:05.298Z,0.98
2023-05-06T21:21:27.358Z,0.93
2023-05-06T21:24:50.770Z,0.86
2023-05-06T21:28:13.787Z,0.78
2023-05-06T21:31:35.777Z,0.69
2023-05-06T21:34:57.500Z,0.67
2023-05-06T21:38:19.338Z,0.64
2023-05-06T21:41:42.396Z,0.59
2023-05-06T21:45:04.600Z,0.52
2023-05-06T21:48:26.513Z,0.44
2023-05-06T21:51:48.283Z,0.35
2023-05-06T21:55:11.450Z,0.30
2023-05-06T21:58:35.256Z,0.26
2023-05-06T22:01:57.863Z,0.19
2023-05-06T22:05:20.484Z,0.14
2023-05-06T22:08:43.154Z,0.11
2023-05-06T22:12:08.786Z,0.09
2023-05-06T22:15:32.368Z,0.05
2023-05-06T22:18:54.475Z,-0.09
2023-05-06T22:22:16.424Z,0.00
2023-05-06T22:25:38.360Z,-0.05
2023-05-06T22:29:00.768Z,-0.10
2023-05-06T22:32:24.424Z,-0.15
2023-05-06T22:35:46.390Z,-0.18
2023-05-06T22:39:08.150Z,-0.26
2023-05-06T22:42:30.189Z,-0.28
2023-05-06T22:45:52.118Z,-0.32
2023-05-06T22:49:16.076Z,-0.39
2023-05-06T22:52:38.229Z,-0.40
2023-05-06T22:56:00.296Z,-0.44
2023-05-06T22:59:22.153Z,-0.49
2023-05-06T23:02:44.236Z,-0.52
2023-05-06T23:06:07.980Z,-0.53
2023-05-06T23:09:29.818Z,-0.56
2023-05-06T23:12:51.661Z,-0.59
2023-05-06T23:16:14.734Z,-0.62
2023-05-06T23:19:37.360Z,-0.67
2023-05-06T23:23:00.705Z,-0.70
2023-05-06T23:26:22.938Z,-0.75
2023-05-06T23:29:44.628Z,-0.77
2023-05-06T23:33:07.140Z,-0.85
2023-05-06T23:36:28.903Z,-0.94
2023-05-06T23:39:52.386Z,-0.99
2023-05-06T23:43:14.314Z,-0.96
2023-05-06T23:46:36.212Z,-1.01
2023-05-06T23:49:58.909Z,-1.08
2023-05-06T23:53:20.633Z,-1.14
2023-05-06T23:56:44.969Z,-1.21
